sensor_id;sensor_type;location;lat;lon;timestamp;P1;durP1;ratioP1;P2;durP2;ratioP2
51838;SDS011;37886;53.174;6.368;2022-09-09T00:04:33;31.67;;;17.52;;
51838;SDS011;37886;53.174;6.368;2022-09-09T00:07:11;31.60;;;17.88;;
51838;SDS011;37886;53.174;6.368;2022-09-09T00:10:19;32.72;;;17.73;;
51838;SDS011;37886;53.174;6.368;2022-09-09T00:15:56;34.63;;;18.23;;
51838;SDS011;37886;53.174;6.368;2022-09-09T00:18:41;60.40;;;21.17;;
51838;SDS011;37886;53.174;6.368;2022-09-09T00:21:14;41.27;;;20.07;;
51838;SDS011;37886;53.174;6.368;2022-09-09T00:23:48;35.65;;;19.73;;
51838;SDS011;37886;53.174;6.368;2022-09-09T00:26:30;39.42;;;19.67;;
51838;SDS011;37886;53.174;6.368;2022-09-09T00:32:05;41.30;;;19.50;;
51838;SDS011;37886;53.174;6.368;2022-09-09T00:34:46;47.13;;;20.65;;
51838;SDS011;37886;53.174;6.368;2022-09-09T00:37:20;47.22;;;19.88;;
51838;SDS011;37886;53.174;6.368;2022-09-09T00:39:50;40.28;;;19.95;;
51838;SDS011;37886;53.174;6.368;2022-09-09T00:47:40;30.27;;;19.13;;
51838;SDS011;37886;53.174;6.368;2022-09-09T00:55:45;52.17;;;21.05;;
51838;SDS011;37886;53.174;6.368;2022-09-09T00:58:13;32.65;;;19.92;;
51838;SDS011;37886;53.174;6.368;2022-09-09T01:03:18;33.88;;;18.77;;
51838;SDS011;37886;53.174;6.368;2022-09-09T01:11:27;42.53;;;20.85;;
51838;SDS011;37886;53.174;6.368;2022-09-09T01:14:16;42.25;;;21.05;;
51838;SDS011;37886;53.174;6.368;2022-09-09T01:17:07;39.95;;;19.73;;
51838;SDS011;37886;53.174;6.368;2022-09-09T01:19:44;37.63;;;21.10;;
51838;SDS011;37886;53.174;6.368;2022-09-09T01:22:34;40.83;;;20.95;;
51838;SDS011;37886;53.174;6.368;2022-09-09T01:28:22;37.80;;;20.05;;
51838;SDS011;37886;53.174;6.368;2022-09-09T01:30:51;40.38;;;20.83;;
51838;SDS011;37886;53.174;6.368;2022-09-09T01:33:19;30.50;;;18.38;;
51838;SDS011;37886;53.174;6.368;2022-09-09T01:35:55;44.28;;;20.33;;
51838;SDS011;37886;53.174;6.368;2022-09-09T01:38:27;30.77;;;18.48;;
51838;SDS011;37886;53.174;6.368;2022-09-09T01:40:54;41.60;;;20.27;;
51838;SDS011;37886;53.174;6.368;2022-09-09T01:43:20;34.55;;;19.75;;
51838;SDS011;37886;53.174;6.368;2022-09-09T01:45:48;34.58;;;19.90;;
51838;SDS011;37886;53.174;6.368;2022-09-09T01:48:16;32.53;;;19.05;;
51838;SDS011;37886;53.174;6.368;2022-09-09T01:50:44;41.58;;;19.25;;
51838;SDS011;37886;53.174;6.368;2022-09-09T01:53:09;38.22;;;19.45;;
51838;SDS011;37886;53.174;6.368;2022-09-09T01:55:38;32.20;;;19.85;;
51838;SDS011;37886;53.174;6.368;2022-09-09T02:01:02;31.25;;;20.02;;
51838;SDS011;37886;53.174;6.368;2022-09-09T02:03:38;34.45;;;20.30;;
51838;SDS011;37886;53.174;6.368;2022-09-09T02:08:56;33.88;;;20.70;;
51838;SDS011;37886;53.174;6.368;2022-09-09T02:11:23;35.95;;;20.08;;
51838;SDS011;37886;53.174;6.368;2022-09-09T02:13:59;47.47;;;23.92;;
51838;SDS011;37886;53.174;6.368;2022-09-09T02:16:32;30.08;;;20.40;;
51838;SDS011;37886;53.174;6.368;2022-09-09T02:19:10;31.60;;;20.23;;
51838;SDS011;37886;53.174;6.368;2022-09-09T02:21:49;30.70;;;19.58;;
51838;SDS011;37886;53.174;6.368;2022-09-09T02:24:17;40.83;;;22.75;;
51838;SDS011;37886;53.174;6.368;2022-09-09T02:26:43;51.75;;;23.80;;
51838;SDS011;37886;53.174;6.368;2022-09-09T02:29:13;38.85;;;22.67;;
51838;SDS011;37886;53.174;6.368;2022-09-09T02:31:42;37.88;;;22.95;;
51838;SDS011;37886;53.174;6.368;2022-09-09T02:34:11;38.83;;;20.88;;
51838;SDS011;37886;53.174;6.368;2022-09-09T02:36:40;46.35;;;23.60;;
51838;SDS011;37886;53.174;6.368;2022-09-09T02:39:08;42.78;;;22.73;;
51838;SDS011;37886;53.174;6.368;2022-09-09T02:41:36;40.30;;;22.20;;
51838;SDS011;37886;53.174;6.368;2022-09-09T02:44:11;38.90;;;21.75;;
51838;SDS011;37886;53.174;6.368;2022-09-09T02:52:07;35.10;;;20.17;;
51838;SDS011;37886;53.174;6.368;2022-09-09T02:54:37;33.50;;;21.00;;
51838;SDS011;37886;53.174;6.368;2022-09-09T02:57:11;42.55;;;23.13;;
51838;SDS011;37886;53.174;6.368;2022-09-09T02:59:41;41.00;;;23.13;;
51838;SDS011;37886;53.174;6.368;2022-09-09T03:02:09;43.03;;;23.00;;
51838;SDS011;37886;53.174;6.368;2022-09-09T03:04:36;49.35;;;25.40;;
51838;SDS011;37886;53.174;6.368;2022-09-09T03:07:03;44.33;;;22.10;;
51838;SDS011;37886;53.174;6.368;2022-09-09T03:09:29;37.60;;;22.27;;
51838;SDS011;37886;53.174;6.368;2022-09-09T03:11:55;44.33;;;23.88;;
51838;SDS011;37886;53.174;6.368;2022-09-09T03:14:25;42.50;;;23.90;;
51838;SDS011;37886;53.174;6.368;2022-09-09T03:16:51;37.30;;;21.77;;
51838;SDS011;37886;53.174;6.368;2022-09-09T03:19:17;37.35;;;21.95;;
51838;SDS011;37886;53.174;6.368;2022-09-09T03:21:44;39.30;;;21.80;;
51838;SDS011;37886;53.174;6.368;2022-09-09T03:24:11;39.38;;;23.58;;
51838;SDS011;37886;53.174;6.368;2022-09-09T03:26:36;35.75;;;21.80;;
51838;SDS011;37886;53.174;6.368;2022-09-09T03:29:03;34.63;;;21.35;;
51838;SDS011;37886;53.174;6.368;2022-09-09T03:31:31;36.88;;;20.73;;
51838;SDS011;37886;53.174;6.368;2022-09-09T03:33:58;37.08;;;21.10;;
51838;SDS011;37886;53.174;6.368;2022-09-09T03:36:24;31.85;;;19.42;;
51838;SDS011;37886;53.174;6.368;2022-09-09T03:38:51;33.17;;;19.27;;
51838;SDS011;37886;53.174;6.368;2022-09-09T03:41:19;31.25;;;18.42;;
51838;SDS011;37886;53.174;6.368;2022-09-09T03:43:47;33.58;;;17.85;;
51838;SDS011;37886;53.174;6.368;2022-09-09T03:46:12;33.58;;;17.05;;
51838;SDS011;37886;53.174;6.368;2022-09-09T03:48:38;30.35;;;18.15;;
51838;SDS011;37886;53.174;6.368;2022-09-09T03:51:04;33.63;;;17.55;;
51838;SDS011;37886;53.174;6.368;2022-09-09T03:53:29;31.02;;;17.75;;
51838;SDS011;37886;53.174;6.368;2022-09-09T03:55:56;27.38;;;16.30;;
51838;SDS011;37886;53.174;6.368;2022-09-09T03:58:25;30.77;;;16.90;;
51838;SDS011;37886;53.174;6.368;2022-09-09T04:00:55;33.15;;;17.63;;
51838;SDS011;37886;53.174;6.368;2022-09-09T04:03:23;30.55;;;17.50;;
51838;SDS011;37886;53.174;6.368;2022-09-09T04:05:53;27.63;;;16.25;;
51838;SDS011;37886;53.174;6.368;2022-09-09T04:08:20;31.20;;;17.15;;
51838;SDS011;37886;53.174;6.368;2022-09-09T04:10:47;28.00;;;15.80;;
51838;SDS011;37886;53.174;6.368;2022-09-09T04:13:16;27.70;;;14.25;;
51838;SDS011;37886;53.174;6.368;2022-09-09T04:15:49;23.20;;;14.73;;
51838;SDS011;37886;53.174;6.368;2022-09-09T04:18:16;32.33;;;15.25;;
51838;SDS011;37886;53.174;6.368;2022-09-09T04:20:42;27.75;;;14.35;;
51838;SDS011;37886;53.174;6.368;2022-09-09T04:23:08;29.95;;;15.77;;
51838;SDS011;37886;53.174;6.368;2022-09-09T04:25:34;30.40;;;18.27;;
51838;SDS011;37886;53.174;6.368;2022-09-09T04:28:00;32.50;;;20.35;;
51838;SDS011;37886;53.174;6.368;2022-09-09T04:30:26;42.03;;;22.33;;
51838;SDS011;37886;53.174;6.368;2022-09-09T04:32:52;40.50;;;21.92;;
51838;SDS011;37886;53.174;6.368;2022-09-09T04:35:18;32.13;;;21.17;;
51838;SDS011;37886;53.174;6.368;2022-09-09T04:37:45;37.67;;;24.20;;
51838;SDS011;37886;53.174;6.368;2022-09-09T04:40:11;43.42;;;28.15;;
51838;SDS011;37886;53.174;6.368;2022-09-09T04:42:37;51.80;;;30.20;;
51838;SDS011;37886;53.174;6.368;2022-09-09T04:45:03;36.50;;;24.95;;
51838;SDS011;37886;53.174;6.368;2022-09-09T04:47:31;31.08;;;20.05;;
51838;SDS011;37886;53.174;6.368;2022-09-09T04:49:57;27.38;;;16.80;;
51838;SDS011;37886;53.174;6.368;2022-09-09T04:52:23;24.63;;;15.00;;
51838;SDS011;37886;53.174;6.368;2022-09-09T04:54:49;29.17;;;14.57;;
51838;SDS011;37886;53.174;6.368;2022-09-09T04:57:14;31.35;;;15.02;;
51838;SDS011;37886;53.174;6.368;2022-09-09T04:59:40;23.80;;;14.35;;
51838;SDS011;37886;53.174;6.368;2022-09-09T05:02:06;29.15;;;14.85;;
51838;SDS011;37886;53.174;6.368;2022-09-09T05:04:31;29.80;;;14.65;;
51838;SDS011;37886;53.174;6.368;2022-09-09T05:06:58;38.97;;;15.45;;
51838;SDS011;37886;53.174;6.368;2022-09-09T05:09:24;32.60;;;14.95;;
51838;SDS011;37886;53.174;6.368;2022-09-09T05:11:50;31.15;;;15.77;;
51838;SDS011;37886;53.174;6.368;2022-09-09T05:14:16;27.58;;;15.77;;
51838;SDS011;37886;53.174;6.368;2022-09-09T05:16:43;25.63;;;15.02;;
51838;SDS011;37886;53.174;6.368;2022-09-09T05:19:10;25.48;;;14.95;;
51838;SDS011;37886;53.174;6.368;2022-09-09T05:21:36;27.77;;;16.33;;
51838;SDS011;37886;53.174;6.368;2022-09-09T05:24:02;28.23;;;16.33;;
51838;SDS011;37886;53.174;6.368;2022-09-09T05:26:28;30.90;;;16.52;;
51838;SDS011;37886;53.174;6.368;2022-09-09T05:28:54;31.08;;;17.25;;
51838;SDS011;37886;53.174;6.368;2022-09-09T05:31:20;31.30;;;16.40;;
51838;SDS011;37886;53.174;6.368;2022-09-09T05:33:47;30.23;;;16.20;;
51838;SDS011;37886;53.174;6.368;2022-09-09T05:36:18;30.38;;;16.58;;
51838;SDS011;37886;53.174;6.368;2022-09-09T05:38:45;44.80;;;18.35;;
51838;SDS011;37886;53.174;6.368;2022-09-09T05:41:11;37.28;;;17.40;;
51838;SDS011;37886;53.174;6.368;2022-09-09T05:43:40;38.08;;;18.90;;
51838;SDS011;37886;53.174;6.368;2022-09-09T05:46:09;33.42;;;17.52;;
51838;SDS011;37886;53.174;6.368;2022-09-09T05:48:37;39.10;;;19.40;;
51838;SDS011;37886;53.174;6.368;2022-09-09T05:51:06;45.40;;;19.00;;
51838;SDS011;37886;53.174;6.368;2022-09-09T05:53:33;35.00;;;18.50;;
51838;SDS011;37886;53.174;6.368;2022-09-09T05:56:03;32.88;;;18.05;;
51838;SDS011;37886;53.174;6.368;2022-09-09T05:58:31;29.63;;;19.15;;
51838;SDS011;37886;53.174;6.368;2022-09-09T06:01:04;35.28;;;18.50;;
51838;SDS011;37886;53.174;6.368;2022-09-09T06:03:39;32.20;;;18.17;;
51838;SDS011;37886;53.174;6.368;2022-09-09T06:06:09;36.95;;;18.85;;
51838;SDS011;37886;53.174;6.368;2022-09-09T06:08:38;30.95;;;17.92;;
51838;SDS011;37886;53.174;6.368;2022-09-09T06:11:09;34.22;;;18.30;;
51838;SDS011;37886;53.174;6.368;2022-09-09T06:13:37;32.30;;;18.20;;
51838;SDS011;37886;53.174;6.368;2022-09-09T06:16:04;33.70;;;18.45;;
51838;SDS011;37886;53.174;6.368;2022-09-09T06:18:32;30.45;;;16.90;;
51838;SDS011;37886;53.174;6.368;2022-09-09T06:21:01;29.23;;;16.85;;
51838;SDS011;37886;53.174;6.368;2022-09-09T06:23:32;29.80;;;18.30;;
51838;SDS011;37886;53.174;6.368;2022-09-09T06:26:19;30.77;;;18.15;;
51838;SDS011;37886;53.174;6.368;2022-09-09T06:28:51;25.58;;;16.80;;
51838;SDS011;37886;53.174;6.368;2022-09-09T06:31:21;30.50;;;17.40;;
51838;SDS011;37886;53.174;6.368;2022-09-09T06:34:04;29.55;;;16.98;;
51838;SDS011;37886;53.174;6.368;2022-09-09T06:36:31;34.45;;;17.88;;
51838;SDS011;37886;53.174;6.368;2022-09-09T06:38:58;30.52;;;16.95;;
51838;SDS011;37886;53.174;6.368;2022-09-09T06:41:25;31.02;;;17.45;;
51838;SDS011;37886;53.174;6.368;2022-09-09T06:43:53;30.95;;;16.95;;
51838;SDS011;37886;53.174;6.368;2022-09-09T06:46:21;23.80;;;14.52;;
51838;SDS011;37886;53.174;6.368;2022-09-09T06:48:48;28.42;;;14.98;;
51838;SDS011;37886;53.174;6.368;2022-09-09T06:51:15;27.60;;;16.13;;
51838;SDS011;37886;53.174;6.368;2022-09-09T06:53:46;25.30;;;14.70;;
51838;SDS011;37886;53.174;6.368;2022-09-09T06:56:30;24.85;;;14.35;;
51838;SDS011;37886;53.174;6.368;2022-09-09T06:59:01;23.65;;;13.60;;
51838;SDS011;37886;53.174;6.368;2022-09-09T07:01:30;23.23;;;14.40;;
51838;SDS011;37886;53.174;6.368;2022-09-09T07:03:58;21.38;;;14.07;;
51838;SDS011;37886;53.174;6.368;2022-09-09T07:06:28;22.90;;;13.45;;
51838;SDS011;37886;53.174;6.368;2022-09-09T07:08:57;18.17;;;13.73;;
51838;SDS011;37886;53.174;6.368;2022-09-09T07:11:30;21.48;;;13.20;;
51838;SDS011;37886;53.174;6.368;2022-09-09T07:14:02;28.17;;;16.30;;
51838;SDS011;37886;53.174;6.368;2022-09-09T07:16:28;28.58;;;15.15;;
51838;SDS011;37886;53.174;6.368;2022-09-09T07:18:56;19.52;;;13.57;;
51838;SDS011;37886;53.174;6.368;2022-09-09T07:21:23;17.30;;;12.95;;
51838;SDS011;37886;53.174;6.368;2022-09-09T07:23:51;27.42;;;14.10;;
51838;SDS011;37886;53.174;6.368;2022-09-09T07:26:17;22.17;;;12.68;;
51838;SDS011;37886;53.174;6.368;2022-09-09T07:28:45;26.40;;;13.25;;
51838;SDS011;37886;53.174;6.368;2022-09-09T07:31:15;23.27;;;13.48;;
51838;SDS011;37886;53.174;6.368;2022-09-09T07:33:43;19.73;;;11.60;;
51838;SDS011;37886;53.174;6.368;2022-09-09T07:36:13;141.02;;;16.25;;
51838;SDS011;37886;53.174;6.368;2022-09-09T07:38:41;18.42;;;12.60;;
51838;SDS011;37886;53.174;6.368;2022-09-09T07:41:13;18.95;;;11.45;;
51838;SDS011;37886;53.174;6.368;2022-09-09T07:43:47;14.68;;;11.40;;
51838;SDS011;37886;53.174;6.368;2022-09-09T07:46:15;18.52;;;11.60;;
51838;SDS011;37886;53.174;6.368;2022-09-09T07:48:48;20.50;;;12.63;;
51838;SDS011;37886;53.174;6.368;2022-09-09T07:51:19;20.83;;;12.88;;
51838;SDS011;37886;53.174;6.368;2022-09-09T07:53:48;17.60;;;10.70;;
51838;SDS011;37886;53.174;6.368;2022-09-09T07:56:17;15.15;;;9.68;;
51838;SDS011;37886;53.174;6.368;2022-09-09T07:58:47;13.52;;;10.70;;
51838;SDS011;37886;53.174;6.368;2022-09-09T08:01:19;14.60;;;10.73;;
51838;SDS011;37886;53.174;6.368;2022-09-09T08:03:57;13.23;;;9.57;;
51838;SDS011;37886;53.174;6.368;2022-09-09T08:06:26;15.40;;;10.00;;
51838;SDS011;37886;53.174;6.368;2022-09-09T08:09:03;16.88;;;10.90;;
51838;SDS011;37886;53.174;6.368;2022-09-09T08:11:29;14.05;;;9.80;;
51838;SDS011;37886;53.174;6.368;2022-09-09T08:13:56;15.40;;;8.32;;
51838;SDS011;37886;53.174;6.368;2022-09-09T08:16:26;14.02;;;9.10;;
51838;SDS011;37886;53.174;6.368;2022-09-09T08:18:53;16.02;;;9.65;;
51838;SDS011;37886;53.174;6.368;2022-09-09T08:21:24;11.80;;;8.15;;
51838;SDS011;37886;53.174;6.368;2022-09-09T08:23:53;14.18;;;10.35;;
51838;SDS011;37886;53.174;6.368;2022-09-09T08:26:21;13.82;;;9.65;;
51838;SDS011;37886;53.174;6.368;2022-09-09T08:28:53;19.13;;;10.70;;
51838;SDS011;37886;53.174;6.368;2022-09-09T08:33:53;13.43;;;8.10;;
51838;SDS011;37886;53.174;6.368;2022-09-09T08:36:20;11.90;;;7.35;;
51838;SDS011;37886;53.174;6.368;2022-09-09T08:38:51;14.52;;;7.85;;
51838;SDS011;37886;53.174;6.368;2022-09-09T08:43:51;12.32;;;8.05;;
51838;SDS011;37886;53.174;6.368;2022-09-09T08:49:11;13.63;;;7.65;;
51838;SDS011;37886;53.174;6.368;2022-09-09T08:51:52;13.32;;;7.97;;
51838;SDS011;37886;53.174;6.368;2022-09-09T08:54:20;10.73;;;6.70;;
51838;SDS011;37886;53.174;6.368;2022-09-09T08:56:46;14.60;;;6.03;;
51838;SDS011;37886;53.174;6.368;2022-09-09T08:59:14;11.25;;;7.20;;
51838;SDS011;37886;53.174;6.368;2022-09-09T09:07:02;11.60;;;5.65;;
51838;SDS011;37886;53.174;6.368;2022-09-09T09:12:24;14.23;;;6.05;;
51838;SDS011;37886;53.174;6.368;2022-09-09T09:14:54;8.57;;;5.13;;
51838;SDS011;37886;53.174;6.368;2022-09-09T09:17:24;13.07;;;5.43;;
51838;SDS011;37886;53.174;6.368;2022-09-09T09:19:53;8.38;;;5.45;;
51838;SDS011;37886;53.174;6.368;2022-09-09T09:23:01;12.00;;;4.80;;
51838;SDS011;37886;53.174;6.368;2022-09-09T09:25:17;10.27;;;5.18;;
51838;SDS011;37886;53.174;6.368;2022-09-09T09:33:41;13.02;;;4.20;;
51838;SDS011;37886;53.174;6.368;2022-09-09T09:36:11;13.00;;;4.20;;
51838;SDS011;37886;53.174;6.368;2022-09-09T09:38:40;10.65;;;3.75;;
51838;SDS011;37886;53.174;6.368;2022-09-09T09:44:23;14.30;;;4.18;;
51838;SDS011;37886;53.174;6.368;2022-09-09T09:49:52;12.00;;;3.72;;
51838;SDS011;37886;53.174;6.368;2022-09-09T09:52:31;14.05;;;4.43;;
51838;SDS011;37886;53.174;6.368;2022-09-09T09:54:59;14.00;;;3.63;;
51838;SDS011;37886;53.174;6.368;2022-09-09T09:57:30;17.75;;;4.50;;
51838;SDS011;37886;53.174;6.368;2022-09-09T10:00:00;12.05;;;3.30;;
51838;SDS011;37886;53.174;6.368;2022-09-09T10:02:38;16.58;;;4.05;;
51838;SDS011;37886;53.174;6.368;2022-09-09T10:05:12;13.15;;;3.60;;
51838;SDS011;37886;53.174;6.368;2022-09-09T10:07:43;11.50;;;3.88;;
51838;SDS011;37886;53.174;6.368;2022-09-09T10:10:20;10.00;;;3.93;;
51838;SDS011;37886;53.174;6.368;2022-09-09T10:18:02;13.85;;;4.07;;
51838;SDS011;37886;53.174;6.368;2022-09-09T10:29:17;11.07;;;3.50;;
51838;SDS011;37886;53.174;6.368;2022-09-09T10:34:57;10.13;;;3.85;;
51838;SDS011;37886;53.174;6.368;2022-09-09T10:40:24;14.40;;;4.00;;
51838;SDS011;37886;53.174;6.368;2022-09-09T10:46:14;7.40;;;2.50;;
51838;SDS011;37886;53.174;6.368;2022-09-09T10:51:50;11.38;;;2.42;;
51838;SDS011;37886;53.174;6.368;2022-09-09T10:57:18;6.10;;;1.92;;
51838;SDS011;37886;53.174;6.368;2022-09-09T10:59:53;8.57;;;2.72;;
51838;SDS011;37886;53.174;6.368;2022-09-09T11:02:27;9.60;;;2.72;;
51838;SDS011;37886;53.174;6.368;2022-09-09T11:04:59;7.47;;;2.20;;
51838;SDS011;37886;53.174;6.368;2022-09-09T11:07:47;9.18;;;2.92;;
51838;SDS011;37886;53.174;6.368;2022-09-09T11:13:05;7.50;;;2.33;;
51838;SDS011;37886;53.174;6.368;2022-09-09T11:15:52;6.63;;;1.77;;
51838;SDS011;37886;53.174;6.368;2022-09-09T11:18:24;7.85;;;2.72;;
51838;SDS011;37886;53.174;6.368;2022-09-09T11:20:56;9.40;;;2.63;;
51838;SDS011;37886;53.174;6.368;2022-09-09T11:23:48;9.95;;;2.60;;
51838;SDS011;37886;53.174;6.368;2022-09-09T11:26:17;8.57;;;2.25;;
51838;SDS011;37886;53.174;6.368;2022-09-09T11:29:01;8.25;;;2.10;;
51838;SDS011;37886;53.174;6.368;2022-09-09T11:31:46;7.93;;;2.20;;
51838;SDS011;37886;53.174;6.368;2022-09-09T11:34:39;7.60;;;2.10;;
51838;SDS011;37886;53.174;6.368;2022-09-09T11:37:40;10.55;;;2.10;;
51838;SDS011;37886;53.174;6.368;2022-09-09T11:40:56;8.18;;;1.85;;
51838;SDS011;37886;53.174;6.368;2022-09-09T11:43:28;10.52;;;2.10;;
51838;SDS011;37886;53.174;6.368;2022-09-09T11:45:58;12.18;;;2.22;;
51838;SDS011;37886;53.174;6.368;2022-09-09T11:48:37;8.15;;;2.60;;
51838;SDS011;37886;53.174;6.368;2022-09-09T11:51:08;7.55;;;2.35;;
51838;SDS011;37886;53.174;6.368;2022-09-09T11:53:54;8.43;;;1.95;;
51838;SDS011;37886;53.174;6.368;2022-09-09T11:56:27;9.35;;;2.08;;
51838;SDS011;37886;53.174;6.368;2022-09-09T12:01:49;7.10;;;2.08;;
51838;SDS011;37886;53.174;6.368;2022-09-09T12:09:18;7.22;;;2.05;;
51838;SDS011;37886;53.174;6.368;2022-09-09T12:11:51;5.22;;;1.73;;
51838;SDS011;37886;53.174;6.368;2022-09-09T12:14:34;8.02;;;1.90;;
51838;SDS011;37886;53.174;6.368;2022-09-09T12:20:03;6.75;;;2.17;;
51838;SDS011;37886;53.174;6.368;2022-09-09T12:22:47;8.45;;;1.90;;
51838;SDS011;37886;53.174;6.368;2022-09-09T12:28:02;4.63;;;1.40;;
51838;SDS011;37886;53.174;6.368;2022-09-09T12:30:45;9.15;;;2.17;;
51838;SDS011;37886;53.174;6.368;2022-09-09T12:33:16;9.10;;;2.33;;
51838;SDS011;37886;53.174;6.368;2022-09-09T12:35:44;7.80;;;1.60;;
51838;SDS011;37886;53.174;6.368;2022-09-09T12:38:17;7.07;;;2.15;;
51838;SDS011;37886;53.174;6.368;2022-09-09T12:40:56;6.45;;;1.52;;
51838;SDS011;37886;53.174;6.368;2022-09-09T12:43:24;5.95;;;1.42;;
51838;SDS011;37886;53.174;6.368;2022-09-09T12:45:51;10.77;;;2.17;;
51838;SDS011;37886;53.174;6.368;2022-09-09T12:51:01;6.38;;;1.92;;
51838;SDS011;37886;53.174;6.368;2022-09-09T12:53:36;7.45;;;1.67;;
51838;SDS011;37886;53.174;6.368;2022-09-09T12:56:07;8.52;;;2.53;;
51838;SDS011;37886;53.174;6.368;2022-09-09T12:58:38;8.07;;;2.05;;
51838;SDS011;37886;53.174;6.368;2022-09-09T13:01:05;6.32;;;1.67;;
51838;SDS011;37886;53.174;6.368;2022-09-09T13:03:43;7.30;;;2.20;;
51838;SDS011;37886;53.174;6.368;2022-09-09T13:06:11;4.90;;;1.60;;
51838;SDS011;37886;53.174;6.368;2022-09-09T13:08:43;4.93;;;1.60;;
51838;SDS011;37886;53.174;6.368;2022-09-09T13:11:13;8.82;;;2.03;;
51838;SDS011;37886;53.174;6.368;2022-09-09T13:13:49;6.80;;;1.77;;
51838;SDS011;37886;53.174;6.368;2022-09-09T13:16:21;5.20;;;1.45;;
51838;SDS011;37886;53.174;6.368;2022-09-09T13:19:01;6.05;;;1.33;;
51838;SDS011;37886;53.174;6.368;2022-09-09T13:21:36;5.43;;;1.42;;
51838;SDS011;37886;53.174;6.368;2022-09-09T13:24:04;5.82;;;2.00;;
51838;SDS011;37886;53.174;6.368;2022-09-09T13:26:32;4.07;;;1.48;;
51838;SDS011;37886;53.174;6.368;2022-09-09T13:29:18;9.00;;;1.75;;
51838;SDS011;37886;53.174;6.368;2022-09-09T13:31:44;9.35;;;2.42;;
51838;SDS011;37886;53.174;6.368;2022-09-09T13:34:10;5.57;;;1.50;;
51838;SDS011;37886;53.174;6.368;2022-09-09T13:36:52;6.80;;;1.83;;
51838;SDS011;37886;53.174;6.368;2022-09-09T13:39:21;7.13;;;1.90;;
51838;SDS011;37886;53.174;6.368;2022-09-09T13:41:48;7.00;;;1.85;;
51838;SDS011;37886;53.174;6.368;2022-09-09T13:44:17;7.38;;;1.73;;
51838;SDS011;37886;53.174;6.368;2022-09-09T13:46:58;6.68;;;2.08;;
51838;SDS011;37886;53.174;6.368;2022-09-09T13:49:31;6.40;;;1.92;;
51838;SDS011;37886;53.174;6.368;2022-09-09T13:52:14;7.40;;;1.73;;
51838;SDS011;37886;53.174;6.368;2022-09-09T13:54:43;9.48;;;1.90;;
51838;SDS011;37886;53.174;6.368;2022-09-09T13:57:17;8.10;;;1.70;;
51838;SDS011;37886;53.174;6.368;2022-09-09T13:59:50;7.85;;;1.75;;
51838;SDS011;37886;53.174;6.368;2022-09-09T14:02:17;6.97;;;1.30;;
51838;SDS011;37886;53.174;6.368;2022-09-09T14:04:44;6.20;;;1.50;;
51838;SDS011;37886;53.174;6.368;2022-09-09T14:07:14;8.88;;;1.50;;
51838;SDS011;37886;53.174;6.368;2022-09-09T14:09:42;7.43;;;1.83;;
51838;SDS011;37886;53.174;6.368;2022-09-09T14:12:09;6.03;;;1.50;;
51838;SDS011;37886;53.174;6.368;2022-09-09T14:14:40;7.13;;;1.55;;
51838;SDS011;37886;53.174;6.368;2022-09-09T14:17:07;5.80;;;1.27;;
51838;SDS011;37886;53.174;6.368;2022-09-09T14:19:33;3.83;;;1.50;;
51838;SDS011;37886;53.174;6.368;2022-09-09T14:22:00;2.25;;;0.90;;
51838;SDS011;37886;53.174;6.368;2022-09-09T14:24:26;5.93;;;0.95;;
51838;SDS011;37886;53.174;6.368;2022-09-09T14:26:53;3.38;;;0.88;;
51838;SDS011;37886;53.174;6.368;2022-09-09T14:29:19;2.80;;;0.93;;
51838;SDS011;37886;53.174;6.368;2022-09-09T14:31:45;3.50;;;1.30;;
51838;SDS011;37886;53.174;6.368;2022-09-09T14:34:11;4.15;;;1.20;;
51838;SDS011;37886;53.174;6.368;2022-09-09T14:36:37;5.93;;;1.40;;
51838;SDS011;37886;53.174;6.368;2022-09-09T14:39:03;4.55;;;1.50;;
51838;SDS011;37886;53.174;6.368;2022-09-09T14:41:29;4.80;;;1.70;;
51838;SDS011;37886;53.174;6.368;2022-09-09T14:43:55;3.17;;;1.50;;
51838;SDS011;37886;53.174;6.368;2022-09-09T14:46:22;6.78;;;1.48;;
51838;SDS011;37886;53.174;6.368;2022-09-09T14:48:48;5.93;;;1.55;;
51838;SDS011;37886;53.174;6.368;2022-09-09T14:51:15;6.30;;;1.73;;
51838;SDS011;37886;53.174;6.368;2022-09-09T14:53:43;6.43;;;2.00;;
51838;SDS011;37886;53.174;6.368;2022-09-09T14:56:10;8.00;;;1.90;;
51838;SDS011;37886;53.174;6.368;2022-09-09T14:58:40;5.95;;;1.92;;
51838;SDS011;37886;53.174;6.368;2022-09-09T15:01:10;7.65;;;1.73;;
51838;SDS011;37886;53.174;6.368;2022-09-09T15:03:38;6.18;;;1.90;;
51838;SDS011;37886;53.174;6.368;2022-09-09T15:06:07;5.75;;;1.63;;
51838;SDS011;37886;53.174;6.368;2022-09-09T15:08:35;5.80;;;1.75;;
51838;SDS011;37886;53.174;6.368;2022-09-09T15:11:02;5.15;;;1.40;;
51838;SDS011;37886;53.174;6.368;2022-09-09T15:13:29;4.95;;;1.33;;
51838;SDS011;37886;53.174;6.368;2022-09-09T15:15:54;3.88;;;1.50;;
51838;SDS011;37886;53.174;6.368;2022-09-09T15:18:20;3.47;;;1.20;;
51838;SDS011;37886;53.174;6.368;2022-09-09T15:20:46;2.50;;;1.02;;
51838;SDS011;37886;53.174;6.368;2022-09-09T15:23:12;4.28;;;1.27;;
51838;SDS011;37886;53.174;6.368;2022-09-09T15:25:49;5.82;;;1.05;;
51838;SDS011;37886;53.174;6.368;2022-09-09T15:28:17;3.40;;;1.23;;
51838;SDS011;37886;53.174;6.368;2022-09-09T15:30:43;5.63;;;1.20;;
51838;SDS011;37886;53.174;6.368;2022-09-09T15:33:10;5.43;;;1.30;;
51838;SDS011;37886;53.174;6.368;2022-09-09T15:35:35;5.63;;;1.58;;
51838;SDS011;37886;53.174;6.368;2022-09-09T15:38:02;5.38;;;1.60;;
51838;SDS011;37886;53.174;6.368;2022-09-09T15:40:30;6.78;;;1.50;;
51838;SDS011;37886;53.174;6.368;2022-09-09T15:42:57;3.40;;;1.10;;
51838;SDS011;37886;53.174;6.368;2022-09-09T15:45:23;3.20;;;1.20;;
51838;SDS011;37886;53.174;6.368;2022-09-09T15:47:49;3.80;;;1.50;;
51838;SDS011;37886;53.174;6.368;2022-09-09T15:50:15;4.30;;;1.33;;
51838;SDS011;37886;53.174;6.368;2022-09-09T15:52:41;4.63;;;1.25;;
51838;SDS011;37886;53.174;6.368;2022-09-09T15:55:07;2.65;;;1.10;;
51838;SDS011;37886;53.174;6.368;2022-09-09T15:57:33;5.35;;;1.60;;
51838;SDS011;37886;53.174;6.368;2022-09-09T15:59:59;5.68;;;1.58;;
51838;SDS011;37886;53.174;6.368;2022-09-09T16:02:26;12.25;;;2.20;;
51838;SDS011;37886;53.174;6.368;2022-09-09T16:04:52;7.57;;;2.00;;
51838;SDS011;37886;53.174;6.368;2022-09-09T16:07:18;5.10;;;1.92;;
51838;SDS011;37886;53.174;6.368;2022-09-09T16:09:44;7.47;;;2.50;;
51838;SDS011;37886;53.174;6.368;2022-09-09T16:12:12;7.13;;;2.65;;
51838;SDS011;37886;53.174;6.368;2022-09-09T16:14:39;7.50;;;2.28;;
51838;SDS011;37886;53.174;6.368;2022-09-09T16:17:06;6.20;;;2.10;;
51838;SDS011;37886;53.174;6.368;2022-09-09T16:19:32;7.70;;;2.20;;
51838;SDS011;37886;53.174;6.368;2022-09-09T16:21:59;7.28;;;2.60;;
51838;SDS011;37886;53.174;6.368;2022-09-09T16:24:25;5.63;;;2.58;;
51838;SDS011;37886;53.174;6.368;2022-09-09T16:26:53;6.05;;;2.42;;
51838;SDS011;37886;53.174;6.368;2022-09-09T16:29:20;6.85;;;2.35;;
51838;SDS011;37886;53.174;6.368;2022-09-09T16:31:47;4.50;;;2.40;;
51838;SDS011;37886;53.174;6.368;2022-09-09T16:34:14;5.75;;;2.40;;
51838;SDS011;37886;53.174;6.368;2022-09-09T16:36:42;4.15;;;2.38;;
51838;SDS011;37886;53.174;6.368;2022-09-09T16:39:10;8.23;;;2.80;;
51838;SDS011;37886;53.174;6.368;2022-09-09T16:41:37;10.07;;;3.47;;
51838;SDS011;37886;53.174;6.368;2022-09-09T16:44:05;6.43;;;3.30;;
51838;SDS011;37886;53.174;6.368;2022-09-09T16:46:34;9.07;;;3.28;;
51838;SDS011;37886;53.174;6.368;2022-09-09T16:49:01;9.18;;;4.45;;
51838;SDS011;37886;53.174;6.368;2022-09-09T16:51:32;7.97;;;3.20;;